createdAt,value
2019-02-05T17:09:16.747Z,990.85
2019-02-05T17:10:16.708Z,990.88
2019-02-05T17:11:16.696Z,990.81
2019-02-05T17:12:16.683Z,990.90
2019-02-05T17:13:16.680Z,990.79
2019-02-05T17:14:16.666Z,990.83
2019-02-05T17:15:16.676Z,990.78
2019-02-05T17:16:16.650Z,990.82
2019-02-05T17:17:16.634Z,990.78
2019-02-05T17:18:23.839Z,990.85
2019-02-05T17:19:17.612Z,990.88
2019-02-05T17:20:16.610Z,990.86
2019-02-05T17:21:16.624Z,990.93
2019-02-05T17:22:16.586Z,990.87
2019-02-05T17:23:16.577Z,990.89
2019-02-05T17:24:16.560Z,990.89
2019-02-05T17:25:16.554Z,990.85
2019-02-05T17:26:16.547Z,990.88
2019-02-05T17:27:16.554Z,990.88
2019-02-05T17:28:16.532Z,990.84
2019-02-05T17:29:16.509Z,990.79
2019-02-05T17:30:16.499Z,990.83
2019-02-05T17:31:16.490Z,990.86
2019-02-05T17:32:16.483Z,990.86
2019-02-05T17:33:16.496Z,990.85
2019-02-05T17:34:16.458Z,990.92
2019-02-05T17:35:16.452Z,990.86
2019-02-05T17:36:16.445Z,990.89
2019-02-05T17:37:16.458Z,990.87
2019-02-05T17:38:16.425Z,990.87
2019-02-05T17:39:16.525Z,990.84
2019-02-05T17:40:16.395Z,990.88
2019-02-05T17:41:16.381Z,990.83
2019-02-05T17:42:16.378Z,990.90
2019-02-05T17:43:16.379Z,990.83
2019-02-05T17:44:16.361Z,990.93
2019-02-05T17:45:16.355Z,990.85
2019-02-05T17:46:16.357Z,990.87
2019-02-05T17:47:16.336Z,990.90
2019-02-05T17:48:16.330Z,990.87
2019-02-05T17:49:16.308Z,990.83
2019-02-05T17:50:16.292Z,990.96
2019-02-05T17:51:16.304Z,990.84
2019-02-05T17:52:16.272Z,990.81
2019-02-05T17:53:16.256Z,990.80
2019-02-05T17:54:16.244Z,990.81
2019-02-05T17:55:16.231Z,990.81
2019-02-05T17:56:16.225Z,990.86
2019-02-05T17:57:16.232Z,990.79
2019-02-05T17:58:16.208Z,990.85
2019-02-05T17:59:16.212Z,990.81
2019-02-05T18:00:16.183Z,990.79
2019-02-05T18:01:16.183Z,990.80
2019-02-05T18:02:16.163Z,990.82
2019-02-05T18:03:16.173Z,990.82
2019-02-05T18:04:16.155Z,990.86
2019-02-05T18:05:16.135Z,990.88
2019-02-05T18:06:16.122Z,990.84
2019-02-05T18:07:16.107Z,990.88
2019-02-05T18:08:16.107Z,990.91
2019-02-05T18:09:16.208Z,990.92
2019-02-05T18:10:16.088Z,990.86
2019-02-05T18:11:16.194Z,990.83
2019-02-05T18:12:16.074Z,990.86
2019-02-05T18:13:16.054Z,990.88
2019-02-05T18:14:16.049Z,990.80
2019-02-05T18:15:16.053Z,990.83
2019-02-05T18:16:16.024Z,990.81
2019-02-05T18:17:16.018Z,990.74
2019-02-05T18:18:16.021Z,990.74
2019-02-05T18:19:15.993Z,990.75
2019-02-05T18:20:15.979Z,990.77
2019-02-05T18:21:15.992Z,990.81
2019-02-05T18:22:15.967Z,990.74
2019-02-05T18:23:15.960Z,990.71
2019-02-05T18:24:15.947Z,990.78
2019-02-05T18:25:15.931Z,990.77
2019-02-05T18:26:15.919Z,990.78
2019-02-05T18:27:15.931Z,990.70
2019-02-05T18:28:15.900Z,990.74
2019-02-05T18:29:15.884Z,990.73
2019-02-05T18:30:15.877Z,990.74
2019-02-05T18:31:15.865Z,990.69
2019-02-05T18:32:15.858Z,990.77
2019-02-05T18:33:15.858Z,990.87
2019-02-05T18:34:15.852Z,990.75
2019-02-05T18:35:15.829Z,990.72
2019-02-05T18:36:15.830Z,990.76
2019-02-05T18:37:15.802Z,990.78
2019-02-05T18:38:15.797Z,990.82
2019-02-05T18:39:15.887Z,990.75
2019-02-05T18:40:15.771Z,990.78
2019-02-05T18:41:15.773Z,990.79
2019-02-05T18:42:15.769Z,990.81
2019-02-05T18:43:15.746Z,990.77
2019-02-05T18:44:15.734Z,990.82
2019-02-05T18:45:15.763Z,990.83
2019-02-05T18:46:15.715Z,990.78
2019-02-05T18:47:15.703Z,990.73
2019-02-05T18:48:15.695Z,990.82
2019-02-05T18:49:15.678Z,990.84
2019-02-05T18:50:15.691Z,990.79
2019-02-05T18:51:15.674Z,990.79
2019-02-05T18:52:15.646Z,990.81
2019-02-05T18:53:15.637Z,990.80
2019-02-05T18:54:15.639Z,990.79
2019-02-05T18:55:15.617Z,990.73
2019-02-05T18:56:15.616Z,990.81
2019-02-05T18:57:15.607Z,990.84
2019-02-05T18:58:15.582Z,990.76
2019-02-05T18:59:15.588Z,990.74
2019-02-05T19:00:15.563Z,990.78
2019-02-05T19:01:15.556Z,990.80
2019-02-05T19:02:15.549Z,990.79
2019-02-05T19:03:16.350Z,990.76
2019-02-05T19:04:15.524Z,990.86
2019-02-05T19:05:15.511Z,990.85
2019-02-05T19:06:15.503Z,990.90
2019-02-05T19:07:15.494Z,990.84
2019-02-05T19:08:16.544Z,990.84
2019-02-05T19:09:15.498Z,990.96
2019-02-05T19:10:15.462Z,990.88
2019-02-05T19:11:15.452Z,990.90
2019-02-05T19:12:15.443Z,990.90
2019-02-05T19:13:15.430Z,990.94
2019-02-05T19:14:15.417Z,990.91
2019-02-05T19:15:15.440Z,990.88
2019-02-05T19:16:15.402Z,990.88
2019-02-05T19:17:15.388Z,990.94
2019-02-05T19:18:15.377Z,990.91
2019-02-05T19:19:15.524Z,990.89
2019-02-05T19:20:15.355Z,990.87
2019-02-05T19:21:15.369Z,990.91
2019-02-05T19:22:15.334Z,990.89
2019-02-05T19:23:15.327Z,990.97
2019-02-05T19:24:15.356Z,990.93
2019-02-05T19:25:15.362Z,990.93
2019-02-05T19:26:15.288Z,990.93
2019-02-05T19:27:15.304Z,990.91
2019-02-05T19:28:15.349Z,990.96
2019-02-05T19:29:18.881Z,990.95
2019-02-05T19:30:15.253Z,990.85
2019-02-05T19:31:15.250Z,990.90
2019-02-05T19:32:15.230Z,990.90
2019-02-05T19:33:26.415Z,990.83
2019-02-05T19:34:16.226Z,990.82
2019-02-05T19:35:15.204Z,990.82
2019-02-05T19:36:15.198Z,990.86
2019-02-05T19:37:15.176Z,990.84
2019-02-05T19:38:15.169Z,990.85
2019-02-05T19:39:15.199Z,990.86
2019-02-05T19:40:15.147Z,990.90
2019-02-05T19:41:15.183Z,990.82
2019-02-05T19:42:15.137Z,990.92
2019-02-05T19:43:15.119Z,990.94
2019-02-05T19:44:15.106Z,990.95
2019-02-05T19:45:15.150Z,990.87
2019-02-05T19:46:15.136Z,990.91
2019-02-05T19:47:15.201Z,990.92
2019-02-05T19:48:15.127Z,990.90
2019-02-05T19:49:21.806Z,990.90
2019-02-05T19:50:16.058Z,991.08
2019-02-05T19:51:16.264Z,990.92
2019-02-05T19:52:15.024Z,991.04
2019-02-05T19:53:15.009Z,991.08
2019-02-05T19:54:15.014Z,990.94
2019-02-05T19:55:14.995Z,991.00
2019-02-05T19:56:15.126Z,990.89
2019-02-05T19:57:14.979Z,990.97
2019-02-05T19:58:14.958Z,990.88
2019-02-05T19:59:14.947Z,990.98
2019-02-05T20:00:14.939Z,991.00
2019-02-05T20:01:14.932Z,990.98
2019-02-05T20:02:14.941Z,990.98
2019-02-05T20:03:14.906Z,991.05
2019-02-05T20:04:14.896Z,991.05
2019-02-05T20:05:14.886Z,990.98
2019-02-05T20:06:14.889Z,991.06
2019-02-05T20:07:14.871Z,991.03
2019-02-05T20:08:14.873Z,991.00
2019-02-05T20:09:14.851Z,991.04
2019-02-05T20:10:14.838Z,991.02
2019-02-05T20:11:14.845Z,991.01
2019-02-05T20:12:14.819Z,991.03
2019-02-05T20:13:14.803Z,991.07
2019-02-05T20:14:14.814Z,991.03
2019-02-05T20:15:14.783Z,991.07
2019-02-05T20:16:14.778Z,991.03
2019-02-05T20:17:14.761Z,990.97
2019-02-05T20:18:14.757Z,991.02
2019-02-05T20:19:14.746Z,991.02
2019-02-05T20:20:14.752Z,991.05
2019-02-05T20:21:14.764Z,991.02
2019-02-05T20:22:14.719Z,990.98
2019-02-05T20:23:14.697Z,991.04
2019-02-05T20:24:14.694Z,991.06
2019-02-05T20:25:14.681Z,991.07
2019-02-05T20:26:14.685Z,991.10
2019-02-05T20:27:14.719Z,991.08
2019-02-05T20:28:14.646Z,991.00
2019-02-05T20:29:14.639Z,991.03
2019-02-05T20:30:14.639Z,991.04
2019-02-05T20:31:14.624Z,991.01
2019-02-05T20:32:14.636Z,991.12
2019-02-05T20:33:14.598Z,991.07
2019-02-05T20:34:14.591Z,991.09
2019-02-05T20:35:14.582Z,991.06
2019-02-05T20:36:14.569Z,991.05
2019-02-05T20:37:14.553Z,991.04
2019-02-05T20:38:14.571Z,991.05
2019-02-05T20:39:14.533Z,991.03
2019-02-05T20:40:14.528Z,991.04
2019-02-05T20:41:14.524Z,991.12
2019-02-05T20:42:14.508Z,991.10
2019-02-05T20:43:14.500Z,991.09
2019-02-05T20:44:14.501Z,991.05
2019-02-05T20:45:14.472Z,991.13
2019-02-05T20:46:14.468Z,991.08
2019-02-05T20:47:14.452Z,991.20
2019-02-05T20:48:14.452Z,991.15
2019-02-05T20:49:14.433Z,991.15
2019-02-05T20:50:15.269Z,991.18
2019-02-05T20:51:14.484Z,991.17
2019-02-05T20:52:14.410Z,991.23
2019-02-05T20:53:14.539Z,991.17
2019-02-05T20:54:14.391Z,991.20
2019-02-05T20:55:14.434Z,991.24
2019-02-05T20:56:14.378Z,991.19
2019-02-05T20:57:14.349Z,991.18
2019-02-05T20:58:14.346Z,991.24
2019-02-05T20:59:14.331Z,991.20
2019-02-05T21:00:14.337Z,991.29
2019-02-05T21:01:14.314Z,991.22
2019-02-05T21:02:14.727Z,991.26
2019-02-05T21:03:14.290Z,991.20
2019-02-05T21:04:14.277Z,991.21
2019-02-05T21:05:14.274Z,991.16
2019-02-05T21:06:14.264Z,991.22
2019-02-05T21:07:14.368Z,991.21
2019-02-05T21:08:14.248Z,991.20
2019-02-05T21:09:14.851Z,991.26
2019-02-05T21:10:14.216Z,991.29
2019-02-05T21:11:14.203Z,991.21
2019-02-05T21:12:14.192Z,991.29
2019-02-05T21:13:14.181Z,991.30
2019-02-05T21:14:14.190Z,991.22
2019-02-05T21:15:14.169Z,991.23
2019-02-05T21:16:14.152Z,991.27
2019-02-05T21:17:14.152Z,991.26
2019-02-05T21:18:17.223Z,991.27
2019-02-05T21:19:14.233Z,991.25
2019-02-05T21:20:14.142Z,991.23
2019-02-05T21:21:14.100Z,991.26
2019-02-05T21:22:14.095Z,991.26
2019-02-05T21:23:14.085Z,991.30
2019-02-05T21:24:14.072Z,991.22
2019-02-05T21:25:14.059Z,991.38
2019-02-05T21:26:14.075Z,991.29
2019-02-05T21:27:14.040Z,991.30
2019-02-05T21:28:14.036Z,991.29
2019-02-05T21:29:14.018Z,991.24
2019-02-05T21:30:14.018Z,991.23
2019-02-05T21:31:14.003Z,991.22
2019-02-05T21:32:14.027Z,991.16
2019-02-05T21:33:13.982Z,991.16
2019-02-05T21:34:15.985Z,991.13
2019-02-05T21:35:13.956Z,991.08
2019-02-05T21:36:13.950Z,991.14
2019-02-05T21:37:13.960Z,991.10
2019-02-05T21:38:13.957Z,991.11
2019-02-05T21:39:13.930Z,991.14
2019-02-05T21:40:13.910Z,991.09
2019-02-05T21:41:13.893Z,991.16
2019-02-05T21:42:13.898Z,991.23
2019-02-05T21:43:13.877Z,991.12
2019-02-05T21:44:13.957Z,991.16
2019-02-05T21:45:13.858Z,991.13
2019-02-05T21:46:13.851Z,991.09
2019-02-05T21:47:13.842Z,991.13
2019-02-05T21:48:13.836Z,991.09
2019-02-05T21:49:13.816Z,991.06
2019-02-05T21:50:13.825Z,991.11
2019-02-05T21:51:13.797Z,991.07
2019-02-05T21:52:13.787Z,991.14
2019-02-05T21:53:13.781Z,991.13
2019-02-05T21:54:13.765Z,991.13
2019-02-05T21:55:13.762Z,991.13
2019-02-05T21:56:13.823Z,991.10
2019-02-05T21:57:13.739Z,991.08
2019-02-05T21:58:13.720Z,991.10
2019-02-05T21:59:13.790Z,991.09
2019-02-05T22:00:13.728Z,991.07
2019-02-05T22:01:14.465Z,991.04
2019-02-05T22:02:13.703Z,991.00
2019-02-05T22:03:13.712Z,991.03
2019-02-05T22:04:13.664Z,990.98
2019-02-05T22:05:13.662Z,991.01
2019-02-05T22:06:13.675Z,990.96
2019-02-05T22:07:13.645Z,990.95
2019-02-05T22:08:13.672Z,990.97
2019-02-05T22:09:13.644Z,990.94
2019-02-05T22:10:13.596Z,990.90
2019-02-05T22:11:13.588Z,990.86
2019-02-05T22:12:13.574Z,990.88
2019-02-05T22:13:13.567Z,990.86
2019-02-05T22:14:13.577Z,990.88
2019-02-05T22:15:13.550Z,990.89
2019-02-05T22:16:13.539Z,990.86
2019-02-05T22:17:13.568Z,990.81
2019-02-05T22:18:13.516Z,990.82
2019-02-05T22:19:13.507Z,990.80
2019-02-05T22:20:13.514Z,990.78
2019-02-05T22:21:13.483Z,990.80
2019-02-05T22:22:13.479Z,990.89
2019-02-05T22:23:13.466Z,990.74
2019-02-05T22:24:13.450Z,990.78
2019-02-05T22:25:13.453Z,990.84
2019-02-05T22:26:13.448Z,990.76
2019-02-05T22:27:13.415Z,990.81
2019-02-05T22:28:13.414Z,990.73
2019-02-05T22:29:13.414Z,990.74
2019-02-05T22:30:13.393Z,990.74
2019-02-05T22:31:13.714Z,990.70
2019-02-05T22:32:15.358Z,990.75
2019-02-05T22:33:13.360Z,990.75
2019-02-05T22:34:13.347Z,990.78
2019-02-05T22:35:13.338Z,990.81
2019-02-05T22:36:13.334Z,990.75
2019-02-05T22:37:13.318Z,990.75
2019-02-05T22:38:13.338Z,990.74
2019-02-05T22:39:13.308Z,990.77
2019-02-05T22:40:13.289Z,990.81
2019-02-05T22:41:13.282Z,990.78
2019-02-05T22:42:13.269Z,990.76
2019-02-05T22:43:13.257Z,990.77
2019-02-05T22:44:13.264Z,990.81
2019-02-05T22:45:13.289Z,990.79
2019-02-05T22:46:13.224Z,990.85
2019-02-05T22:47:13.229Z,990.81
2019-02-05T22:48:13.200Z,990.81
2019-02-05T22:49:13.190Z,990.88
2019-02-05T22:50:13.760Z,990.79
2019-02-05T22:51:13.167Z,990.76
2019-02-05T22:52:13.157Z,990.80
2019-02-05T22:53:13.153Z,990.78
2019-02-05T22:54:13.141Z,990.81
2019-02-05T22:55:13.128Z,990.82
2019-02-05T22:56:13.138Z,990.83
2019-02-05T22:57:13.108Z,990.78
2019-02-05T22:58:13.095Z,990.75
2019-02-05T22:59:13.091Z,990.80
2019-02-05T23:00:13.080Z,990.74
2019-02-05T23:01:13.063Z,990.72
2019-02-05T23:02:13.073Z,990.74
2019-02-05T23:03:13.056Z,990.75
2019-02-05T23:04:13.035Z,990.75
2019-02-05T23:05:13.034Z,990.86
2019-02-05T23:06:13.019Z,990.66
2019-02-05T23:07:13.009Z,990.65
2019-02-05T23:08:13.726Z,990.62
2019-02-05T23:09:13.109Z,990.72
2019-02-05T23:10:12.974Z,990.69
2019-02-05T23:11:12.963Z,990.66
2019-02-05T23:12:12.948Z,990.65
2019-02-05T23:13:12.942Z,990.65
2019-02-05T23:14:12.950Z,990.60
2019-02-05T23:15:19.964Z,990.59
2019-02-05T23:16:12.989Z,990.61
2019-02-05T23:17:12.898Z,990.65
2019-02-05T23:18:12.886Z,990.60
2019-02-05T23:19:12.876Z,990.63
2019-02-05T23:20:12.877Z,990.63
2019-02-05T23:21:12.857Z,990.57
2019-02-05T23:22:12.844Z,990.64
2019-02-05T23:23:12.834Z,990.71
2019-02-05T23:24:12.828Z,990.63
2019-02-05T23:25:12.810Z,990.68
2019-02-05T23:26:12.818Z,990.61
2019-02-05T23:27:12.793Z,990.64
2019-02-05T23:28:12.780Z,990.64
2019-02-05T23:29:12.773Z,990.64
2019-02-05T23:30:12.762Z,990.63
2019-02-05T23:31:12.751Z,990.64
2019-02-05T23:32:12.755Z,990.57
2019-02-05T23:33:12.731Z,990.65
2019-02-05T23:34:12.723Z,990.54
2019-02-05T23:35:12.709Z,990.64
2019-02-05T23:36:12.703Z,990.59
2019-02-05T23:37:12.686Z,990.60
2019-02-05T23:38:12.697Z,990.58
2019-02-05T23:39:12.664Z,990.59
2019-02-05T23:40:12.661Z,990.60
2019-02-05T23:41:12.651Z,990.65
2019-02-05T23:42:12.637Z,990.64
2019-02-05T23:43:12.625Z,990.58
2019-02-05T23:44:12.632Z,990.58
2019-02-05T23:45:12.603Z,990.57
2019-02-05T23:46:12.597Z,990.56
2019-02-05T23:47:12.594Z,990.57
2019-02-05T23:48:12.571Z,990.52
2019-02-05T23:49:12.565Z,990.55
2019-02-05T23:50:12.570Z,990.54
2019-02-05T23:51:12.545Z,990.58
2019-02-05T23:52:12.539Z,990.57
2019-02-05T23:53:12.520Z,990.54
2019-02-05T23:54:12.507Z,990.52
2019-02-05T23:55:12.500Z,990.50
2019-02-05T23:56:12.511Z,990.49
2019-02-05T23:57:12.478Z,990.47
2019-02-05T23:58:12.471Z,990.53
2019-02-05T23:59:12.458Z,990.48
